Time;durP1;ratioP1;P1;durP2;ratioP2;P2;SDS_P1;SDS_P2;PMS_P1;PMS_P2;Temp;Humidity;BMP_temperature;BMP_pressure;BME280_temperature;BME280_humidity;BME280_pressure;Samples;Min_cycle;Max_cycle;Signal;HPM_P1;HPM_P2
2023/04/10 00:00:10;;;;;;;9.45;6.72;;;;;;;10.27;51.46;100141.88;345370;28;1274;-72
2023/04/10 00:00:22;;;;;;;9.75;6.78;;;;;;;10.24;51.42;100134.13;345502;28;1060;-73
2023/04/10 00:00:36;;;;;;;10.32;6.88;;;;;;;10.25;51.28;100141.06;345142;28;1169;-72
2023/04/10 00:00:55;;;;;;;10.93;6.88;;;;;;;10.26;51.72;100137.56;346455;28;1530;-72
2023/04/10 00:01:08;;;;;;;9.82;6.80;;;;;;;10.26;51.79;100141.03;347851;28;1235;-72
2023/04/10 00:01:20;;;;;;;9.73;7.03;;;;;;;10.25;51.55;100135.88;346592;28;1069;-72
2023/04/10 00:01:34;;;;;;;10.45;7.35;;;;;;;10.24;51.30;100145.41;346428;28;1058;-72
2023/04/10 00:01:46;;;;;;;10.88;7.60;;;;;;;10.24;51.64;100129.81;346155;28;1289;-72
2023/04/10 00:01:58;;;;;;;10.40;7.45;;;;;;;10.24;51.69;100137.63;346339;28;1266;-73
2023/04/10 00:02:10;;;;;;;10.05;7.55;;;;;;;10.24;51.53;100134.13;346371;28;1287;-72
2023/04/10 00:02:22;;;;;;;11.05;7.43;;;;;;;10.21;51.79;100137.66;346339;28;1225;-72
2023/04/10 00:02:36;;;;;;;11.35;7.18;;;;;;;10.20;51.64;100134.22;346631;28;1280;-73
2023/04/10 00:02:49;;;;;;;10.43;6.80;;;;;;;10.20;51.57;100138.53;345819;28;1302;-72
2023/04/10 00:03:01;;;;;;;9.77;6.90;;;;;;;10.18;51.79;100137.72;345102;28;1078;-73
2023/04/10 00:03:16;;;;;;;10.27;7.32;;;;;;;10.16;51.32;100144.69;345209;28;1172;-73
2023/04/10 00:03:28;;;;;;;10.45;7.13;;;;;;;10.15;51.69;100136.06;344739;28;943;-72
2023/04/10 00:03:41;;;;;;;10.07;6.88;;;;;;;10.13;51.66;100132.66;345049;28;1070;-72
2023/04/10 00:03:53;;;;;;;9.85;6.80;;;;;;;10.13;51.65;100132.66;345402;28;1106;-72
2023/04/10 00:04:06;;;;;;;10.40;6.90;;;;;;;10.14;52.07;100133.50;345187;28;1104;-72
2023/04/10 00:04:18;;;;;;;9.93;6.88;;;;;;;10.12;52.01;100130.06;345020;28;1130;-73
2023/04/10 00:04:31;;;;;;;10.38;7.03;;;;;;;10.11;51.99;100136.19;344788;28;1243;-73
2023/04/10 00:04:46;;;;;;;9.98;6.95;;;;;;;10.09;52.05;100130.16;345220;28;1046;-72
2023/04/10 00:05:00;;;;;;;10.40;6.95;;;;;;;10.10;51.70;100137.06;345126;28;1085;-72
2023/04/10 00:05:12;;;;;;;10.65;7.22;;;;;;;10.09;52.14;100130.16;344828;28;1329;-72
2023/04/10 00:05:24;;;;;;;9.98;7.25;;;;;;;10.10;51.91;100129.25;344872;28;1109;-72
2023/04/10 00:05:36;;;;;;;9.95;7.03;;;;;;;10.10;51.97;100131.84;344916;28;1276;-72
2023/04/10 00:05:49;;;;;;;10.57;6.88;;;;;;;10.10;51.73;100131.84;345019;28;1026;-73
2023/04/10 00:06:01;;;;;;;11.48;7.07;;;;;;;10.06;51.74;100130.22;345146;28;1254;-72
2023/04/10 00:06:13;;;;;;;10.73;6.88;;;;;;;10.07;51.72;100129.34;346285;28;1107;-72
2023/04/10 00:06:27;;;;;;;9.45;6.78;;;;;;;10.08;51.71;100133.63;346097;28;1114;-72
2023/04/10 00:06:40;;;;;;;9.60;6.65;;;;;;;10.07;51.53;100126.75;345896;28;1198;-72
2023/04/10 00:06:52;;;;;;;10.18;6.90;;;;;;;10.08;51.59;100128.44;345269;28;1040;-74
2023/04/10 00:07:04;;;;;;;10.32;7.05;;;;;;;10.06;51.77;100128.50;344762;28;1067;-75
2023/04/10 00:07:16;;;;;;;10.05;7.30;;;;;;;10.07;51.61;100126.75;345675;28;1052;-73
2023/04/10 00:07:28;;;;;;;10.13;7.55;;;;;;;10.08;51.60;100129.31;346009;28;1062;-72
2023/04/10 00:07:41;;;;;;;10.15;7.47;;;;;;;10.06;51.96;100130.22;346900;28;1096;-73
2023/04/10 00:07:53;;;;;;;10.63;7.32;;;;;;;10.07;52.25;100131.94;345875;28;1592;-72
2023/04/10 00:08:05;;;;;;;10.77;7.25;;;;;;;10.07;52.14;100131.94;346177;28;1116;-72
2023/04/10 00:08:17;;;;;;;10.55;7.10;;;;;;;10.06;52.13;100125.03;346397;28;1228;-72
2023/04/10 00:08:29;;;;;;;9.95;7.05;;;;;;;10.09;52.06;100130.16;346068;28;1078;-72
2023/04/10 00:08:41;;;;;;;9.82;6.95;;;;;;;10.08;51.99;100123.25;345977;28;1196;-72
2023/04/10 00:08:53;;;;;;;10.02;7.00;;;;;;;10.08;51.99;100128.44;344813;28;1627;-72
2023/04/10 00:09:04;;;;;;;10.00;7.07;;;;;;;10.08;51.67;100134.50;344609;28;1051;-72
2023/04/10 00:09:16;;;;;;;10.45;7.57;;;;;;;10.08;51.72;100125.84;344497;28;1095;-72
2023/04/10 00:09:29;;;;;;;9.82;7.30;;;;;;;10.07;52.07;100125.00;346313;28;1266;-72
2023/04/10 00:09:42;;;;;;;9.43;7.05;;;;;;;10.08;52.25;100133.63;345899;28;1789;-72
2023/04/10 00:09:54;;;;;;;9.60;6.78;;;;;;;10.05;51.87;100131.13;345945;28;1227;-73
2023/04/10 00:10:06;;;;;;;9.57;6.88;;;;;;;10.03;51.93;100127.72;346371;28;1034;-72
2023/04/10 00:10:18;;;;;;;9.75;7.13;;;;;;;10.03;51.58;100130.31;346211;28;1200;-73
2023/04/10 00:10:31;;;;;;;10.30;7.28;;;;;;;10.03;51.76;100130.31;346701;28;1161;-72
2023/04/10 00:10:43;;;;;;;10.73;7.25;;;;;;;9.96;51.78;100127.84;346339;28;1085;-72
2023/04/10 00:10:55;;;;;;;10.45;7.07;;;;;;;9.97;51.92;100121.75;346198;28;1010;-72
2023/04/10 00:11:08;;;;;;;10.43;7.00;;;;;;;9.99;51.90;100126.91;346249;28;1059;-72
2023/04/10 00:11:20;;;;;;;10.10;7.03;;;;;;;9.99;52.03;100125.16;346164;28;1064;-72
2023/04/10 00:11:32;;;;;;;10.02;7.10;;;;;;;10.03;51.93;100122.50;345956;28;1745;-73
2023/04/10 00:11:45;;;;;;;9.60;6.93;;;;;;;10.02;52.05;100128.59;345717;28;1315;-73
2023/04/10 00:11:56;;;;;;;9.82;6.95;;;;;;;10.00;51.79;100129.47;345964;28;1054;-73
2023/04/10 00:12:10;;;;;;;9.82;6.85;;;;;;;9.96;51.92;100130.44;346083;28;1054;-72
2023/04/10 00:12:22;;;;;;;9.65;6.97;;;;;;;9.97;51.95;100126.09;346136;28;1155;-72
2023/04/10 00:12:36;;;;;;;10.57;7.28;;;;;;;10.00;51.97;100131.25;345876;28;1066;-72
2023/04/10 00:12:49;;;;;;;10.20;7.20;;;;;;;9.99;51.89;100125.16;345714;28;1165;-72
2023/04/10 00:13:03;;;;;;;9.35;6.75;;;;;;;9.98;52.16;100128.66;344769;28;998;-72
2023/04/10 00:13:15;;;;;;;9.13;6.75;;;;;;;9.97;52.28;100121.75;346036;28;1055;-72
2023/04/10 00:13:28;;;;;;;10.00;7.05;;;;;;;9.97;52.46;100129.53;345548;28;1915;-72
2023/04/10 00:13:40;;;;;;;10.20;7.03;;;;;;;9.95;52.05;100126.13;346027;28;1180;-72
2023/04/10 00:13:53;;;;;;;10.48;7.05;;;;;;;9.94;52.34;100128.75;346253;28;1278;-72
2023/04/10 00:14:05;;;;;;;10.18;6.95;;;;;;;9.94;52.09;100121.84;346057;28;1134;-72
2023/04/10 00:14:21;;;;;;;10.40;7.30;;;;;;;9.96;52.07;100124.38;346267;28;1281;-72
2023/04/10 00:14:33;;;;;;;10.00;7.22;;;;;;;9.90;52.42;100120.19;346345;28;1241;-73
2023/04/10 00:14:45;;;;;;;9.68;6.88;;;;;;;9.92;52.19;100128.81;345978;28;1385;-72
2023/04/10 00:14:58;;;;;;;9.88;6.88;;;;;;;9.92;52.46;100122.72;346121;28;1149;-72
2023/04/10 00:15:10;;;;;;;10.68;7.20;;;;;;;9.91;52.31;100121.88;346448;28;1072;-72
2023/04/10 00:15:22;;;;;;;10.57;7.20;;;;;;;9.92;52.31;100126.22;346405;28;1119;-73
2023/04/10 00:15:34;;;;;;;10.98;7.20;;;;;;;9.93;52.53;100125.31;343990;28;5418;-72
2023/04/10 00:15:46;;;;;;;10.95;7.30;;;;;;;9.91;52.43;100127.09;346481;28;3024;-72
2023/04/10 00:15:58;;;;;;;10.07;7.00;;;;;;;9.91;52.59;100126.22;346229;28;1146;-72
2023/04/10 00:16:10;;;;;;;11.50;6.88;;;;;;;9.91;52.30;100126.22;345865;28;3576;-72
2023/04/10 00:16:22;;;;;;;11.95;7.00;;;;;;;9.91;52.29;100127.09;345144;28;1067;-72
2023/04/10 00:16:34;;;;;;;11.30;6.93;;;;;;;9.90;52.43;100121.91;345112;28;1014;-72
2023/04/10 00:16:46;;;;;;;11.25;7.40;;;;;;;9.90;52.26;100120.19;345106;28;1091;-72
2023/04/10 00:16:58;;;;;;;10.65;7.28;;;;;;;9.92;52.11;100128.81;344926;28;1086;-72
2023/04/10 00:17:10;;;;;;;10.07;7.38;;;;;;;9.93;52.06;100127.06;345131;28;1150;-72
2023/04/10 00:17:22;;;;;;;9.15;6.97;;;;;;;9.92;52.25;100127.94;345745;28;1236;-72
2023/04/10 00:17:34;;;;;;;9.70;7.05;;;;;;;9.92;52.33;100131.41;346687;28;3655;-72
2023/04/10 00:17:46;;;;;;;10.88;7.28;;;;;;;9.93;52.14;100125.31;348033;28;1910;-72
2023/04/10 00:17:58;;;;;;;11.20;7.40;;;;;;;9.91;52.62;100126.22;347790;28;1197;-73
2023/04/10 00:18:11;;;;;;;9.80;6.90;;;;;;;9.91;52.65;100124.47;348965;28;1644;-72
2023/04/10 00:18:23;;;;;;;9.03;6.77;;;;;;;9.90;52.58;100124.50;349153;28;1293;-72
2023/04/10 00:18:34;;;;;;;11.38;7.15;;;;;;;9.90;52.46;100125.38;348240;28;1050;-73
2023/04/10 00:18:46;;;;;;;12.05;7.13;;;;;;;9.90;52.41;100125.38;347818;28;1259;-72
2023/04/10 00:18:59;;;;;;;11.68;7.35;;;;;;;9.91;52.46;100127.09;347511;28;1237;-72
2023/04/10 00:19:11;;;;;;;10.90;7.20;;;;;;;9.91;52.22;100126.22;347261;28;1067;-72
2023/04/10 00:19:23;;;;;;;10.73;7.10;;;;;;;9.91;52.43;100123.63;347563;28;1015;-72
2023/04/10 00:19:35;;;;;;;10.95;7.28;;;;;;;9.91;52.23;100127.09;346949;28;1863;-72
2023/04/10 00:19:48;;;;;;;10.18;7.13;;;;;;;9.91;52.25;100131.44;347399;28;1209;-72
2023/04/10 00:20:01;;;;;;;10.48;7.43;;;;;;;9.91;52.29;100124.47;347846;28;1247;-72
2023/04/10 00:20:13;;;;;;;10.77;7.43;;;;;;;9.89;52.67;100126.25;347493;28;1226;-72
2023/04/10 00:20:25;;;;;;;10.73;7.30;;;;;;;9.90;52.42;100125.38;347555;28;1045;-72
2023/04/10 00:20:37;;;;;;;10.00;7.03;;;;;;;9.90;52.60;100119.31;346683;28;1218;-72
2023/04/10 00:20:49;;;;;;;9.85;7.03;;;;;;;9.90;52.56;100125.38;346786;28;1360;-72
2023/04/10 00:21:02;;;;;;;9.38;6.78;;;;;;;9.91;52.35;100123.63;347805;28;1021;-72
2023/04/10 00:21:14;;;;;;;10.15;6.93;;;;;;;9.89;52.60;100123.66;347269;28;1023;-71
2023/04/10 00:21:26;;;;;;;11.02;7.22;;;;;;;9.89;52.25;100118.47;347390;28;1075;-73
2023/04/10 00:21:38;;;;;;;10.50;7.10;;;;;;;9.87;52.55;100115.06;347273;28;1086;-72
2023/04/10 00:21:50;;;;;;;9.68;7.07;;;;;;;9.90;52.34;100125.38;346493;28;1326;-72
2023/04/10 00:22:03;;;;;;;10.18;7.20;;;;;;;9.88;52.40;100121.09;346301;28;1217;-72
2023/04/10 00:22:15;;;;;;;9.18;6.78;;;;;;;9.88;52.35;100121.09;346386;28;1268;-73
2023/04/10 00:22:28;;;;;;;9.40;7.13;;;;;;;9.87;52.56;100120.25;346544;28;1330;-72
2023/04/10 00:22:41;;;;;;;9.15;6.90;;;;;;;9.89;52.31;100123.66;346427;28;1424;-73
2023/04/10 00:22:53;;;;;;;9.13;6.68;;;;;;;9.89;52.12;100121.06;346548;28;1208;-72
2023/04/10 00:23:05;;;;;;;8.77;6.40;;;;;;;9.89;52.14;100120.22;346203;28;1225;-72
2023/04/10 00:23:17;;;;;;;9.18;6.70;;;;;;;9.89;52.04;100123.66;346095;28;1076;-72
2023/04/10 00:23:31;;;;;;;9.52;6.75;;;;;;;9.88;52.50;100116.78;346450;28;1101;-72
2023/04/10 00:23:43;;;;;;;9.55;6.90;;;;;;;9.88;52.62;100121.09;346132;28;1155;-72
2023/04/10 00:23:55;;;;;;;9.68;7.00;;;;;;;9.87;52.47;100119.41;345932;28;1257;-72
2023/04/10 00:24:07;;;;;;;9.55;6.82;;;;;;;9.86;52.54;100118.56;345965;28;1278;-72
2023/04/10 00:24:19;;;;;;;9.40;6.50;;;;;;;9.84;52.66;100114.25;346004;28;1044;-73
2023/04/10 00:24:31;;;;;;;9.00;6.60;;;;;;;9.86;52.48;100107.28;345902;28;1262;-72
2023/04/10 00:24:43;;;;;;;9.15;6.88;;;;;;;9.86;52.58;100117.69;346062;28;1039;-73
2023/04/10 00:25:05;;;;;;;9.93;7.20;;;;;;;9.86;52.63;100112.50;346071;28;1251;-72
2023/04/10 00:25:17;;;;;;;9.73;7.13;;;;;;;9.85;52.66;100118.59;346032;28;1286;-73
2023/04/10 00:25:29;;;;;;;9.32;7.07;;;;;;;9.84;52.59;100116.84;346707;28;1241;-72
2023/04/10 00:25:41;;;;;;;9.82;6.93;;;;;;;9.82;52.33;100116.03;346435;28;1437;-72
2023/04/10 00:25:53;;;;;;;10.52;6.85;;;;;;;9.82;52.64;100109.13;346725;28;1074;-72
2023/04/10 00:26:05;;;;;;;10.65;7.05;;;;;;;9.83;52.68;100115.16;346362;28;1058;-72
2023/04/10 00:26:17;;;;;;;10.23;7.00;;;;;;;9.83;52.67;100107.38;346781;28;1081;-72
2023/04/10 00:26:29;;;;;;;11.00;7.20;;;;;;;9.82;52.84;100113.44;346677;28;1097;-72
2023/04/10 00:26:41;;;;;;;10.63;7.00;;;;;;;9.83;52.90;100113.41;346246;28;1049;-72
2023/04/10 00:26:53;;;;;;;10.32;6.85;;;;;;;9.83;52.70;100113.41;346387;28;1037;-72
2023/04/10 00:27:05;;;;;;;10.30;6.90;;;;;;;9.82;52.50;100110.84;346092;28;1058;-72
2023/04/10 00:27:17;;;;;;;10.57;7.05;;;;;;;9.82;52.68;100106.53;346183;28;1201;-72
2023/04/10 00:27:29;;;;;;;9.98;6.78;;;;;;;9.81;52.97;100115.19;346326;28;1082;-72
2023/04/10 00:27:41;;;;;;;10.80;6.85;;;;;;;9.80;53.02;100114.34;346343;28;1034;-72
2023/04/10 00:27:53;;;;;;;11.57;7.25;;;;;;;9.82;52.92;100114.31;346348;28;1078;-72
2023/04/10 00:28:05;;;;;;;10.65;7.25;;;;;;;9.82;52.77;100111.72;346298;28;1070;-72
2023/04/10 00:28:17;;;;;;;10.18;6.97;;;;;;;9.83;52.64;100117.75;346512;28;1234;-72
2023/04/10 00:28:29;;;;;;;10.23;7.07;;;;;;;9.83;52.47;100109.97;346515;28;1045;-73
2023/04/10 00:28:41;;;;;;;10.00;7.20;;;;;;;9.80;53.12;100113.50;345649;28;2024;-72
2023/04/10 00:28:53;;;;;;;10.23;7.20;;;;;;;9.79;53.00;100112.63;345985;28;1477;-72
2023/04/10 00:29:05;;;;;;;10.95;7.20;;;;;;;9.78;52.92;100110.09;346172;28;1073;-72
2023/04/10 00:29:17;;;;;;;11.38;7.20;;;;;;;9.79;53.22;100111.78;345918;28;1171;-73
2023/04/10 00:29:29;;;;;;;10.38;7.03;;;;;;;9.78;53.21;100110.94;346342;28;1199;-72
2023/04/10 00:29:41;;;;;;;9.80;7.00;;;;;;;9.79;53.35;100107.44;346313;28;1090;-72
2023/04/10 00:29:53;;;;;;;9.68;6.90;;;;;;;9.77;53.06;100110.97;346121;28;1315;-72
2023/04/10 00:30:10;;;;;;;9.40;6.72;;;;;;;9.79;53.03;100112.63;346676;28;1245;-72
2023/04/10 00:30:22;;;;;;;10.18;6.90;;;;;;;9.78;52.99;100110.94;346409;28;1070;-72
2023/04/10 00:30:34;;;;;;;10.60;6.97;;;;;;;9.78;53.12;100112.69;345048;28;1296;-72
2023/04/10 00:30:47;;;;;;;10.45;6.97;;;;;;;9.75;53.12;100116.19;345406;28;1242;-73
2023/04/10 00:30:59;;;;;;;10.43;6.82;;;;;;;9.75;53.20;100107.53;346252;28;1050;-72
2023/04/10 00:31:11;;;;;;;9.75;6.82;;;;;;;9.74;53.11;100108.44;346266;28;1189;-72
2023/04/10 00:31:23;;;;;;;10.07;7.00;;;;;;;9.73;53.04;100111.91;346267;28;1042;-73
2023/04/10 00:31:35;;;;;;;10.98;7.32;;;;;;;9.73;53.30;100111.91;346514;28;1062;-72
2023/04/10 00:31:47;;;;;;;10.95;7.40;;;;;;;9.71;53.40;100109.34;346119;28;1058;-72
2023/04/10 00:31:59;;;;;;;10.93;7.43;;;;;;;9.71;53.57;100103.31;346183;28;1046;-72
2023/04/10 00:32:12;;;;;;;10.30;7.15;;;;;;;9.72;53.22;100105.03;344931;28;1019;-72
2023/04/10 00:32:24;;;;;;;9.93;7.03;;;;;;;9.70;53.15;100101.59;344867;28;1050;-72
2023/04/10 00:32:36;;;;;;;10.25;7.05;;;;;;;9.69;53.29;100100.72;344830;28;1292;-72
2023/04/10 00:32:48;;;;;;;10.63;7.28;;;;;;;9.69;53.19;100100.72;345090;28;1063;-72
2023/04/10 00:33:00;;;;;;;10.73;7.35;;;;;;;9.70;53.17;100106.78;344944;28;1335;-73
2023/04/10 00:33:12;;;;;;;10.52;7.43;;;;;;;9.70;53.09;100112.84;344606;28;1304;-72
2023/04/10 00:33:24;;;;;;;10.18;7.47;;;;;;;9.71;52.97;100105.91;344996;28;1649;-72
2023/04/10 00:33:37;;;;;;;9.43;7.10;;;;;;;9.69;53.18;100107.69;345066;28;1115;-72
2023/04/10 00:33:49;;;;;;;9.57;7.03;;;;;;;9.69;52.78;100107.69;344520;28;3353;-73
2023/04/10 00:34:01;;;;;;;9.95;7.00;;;;;;;9.69;53.14;100105.09;347479;28;3137;-73
2023/04/10 00:34:13;;;;;;;9.65;6.95;;;;;;;9.66;53.26;100112.91;347341;28;1049;-72
2023/04/10 00:34:25;;;;;;;10.00;7.07;;;;;;;9.67;53.23;100106.84;347583;28;3287;-71
2023/04/10 00:34:37;;;;;;;10.63;6.88;;;;;;;9.66;53.19;100108.59;347897;28;1201;-72
2023/04/10 00:34:49;;;;;;;11.48;6.95;;;;;;;9.67;53.26;100096.47;347525;28;1295;-72
2023/04/10 00:35:01;;;;;;;12.23;7.15;;;;;;;9.66;53.20;100108.59;347660;28;1026;-72
2023/04/10 00:35:13;;;;;;;10.98;7.28;;;;;;;9.68;53.47;100108.56;347942;28;1090;-72
2023/04/10 00:35:28;;;;;;;10.37;7.27;;;;;;;9.66;53.51;100107.72;347823;28;1014;-72
2023/04/10 00:35:40;;;;;;;10.90;7.50;;;;;;;9.66;53.17;100105.13;347431;28;1058;-73
2023/04/10 00:35:52;;;;;;;10.90;7.13;;;;;;;9.65;53.53;100106.03;347791;28;3240;-73
2023/04/10 00:36:05;;;;;;;11.48;7.30;;;;;;;9.64;53.92;100104.31;347754;28;1128;-73
2023/04/10 00:36:18;;;;;;;10.77;7.00;;;;;;;9.64;53.58;100106.91;348089;28;1076;-73
2023/04/10 00:36:31;;;;;;;10.38;7.13;;;;;;;9.65;53.58;100108.63;347713;28;1069;-72
2023/04/10 00:36:45;;;;;;;10.18;6.93;;;;;;;9.64;53.97;100109.50;347666;28;1054;-72
2023/04/10 00:36:58;;;;;;;10.05;6.72;;;;;;;9.62;53.65;100113.88;345145;28;1093;-72
2023/04/10 00:37:10;;;;;;;9.73;6.80;;;;;;;9.63;53.38;100105.22;344899;28;1284;-72
2023/04/10 00:37:22;;;;;;;9.85;6.85;;;;;;;9.64;53.53;100106.91;346588;28;1034;-72
2023/04/10 00:37:35;;;;;;;9.98;6.95;;;;;;;9.64;53.72;100106.91;346455;28;1533;-72
2023/04/10 00:37:49;;;;;;;10.80;7.00;;;;;;;9.62;53.75;100104.38;346483;28;1757;-72
2023/04/10 00:38:02;;;;;;;11.25;7.07;;;;;;;9.60;53.78;100112.19;346623;28;1034;-73
2023/04/10 00:38:14;;;;;;;11.05;7.15;;;;;;;9.60;53.74;100101.81;346362;28;1237;-72
2023/04/10 00:38:26;;;;;;;9.77;7.00;;;;;;;9.62;53.74;100111.28;346301;28;1098;-73
2023/04/10 00:38:39;;;;;;;9.10;6.80;;;;;;;9.63;53.81;100110.41;346357;28;1680;-72
2023/04/10 00:38:51;;;;;;;9.43;6.90;;;;;;;9.60;53.75;100107.00;345866;28;1832;-72
2023/04/10 00:39:02;;;;;;;9.88;7.00;;;;;;;9.59;53.79;100105.25;345290;28;1007;-73
2023/04/10 00:39:14;;;;;;;10.63;7.13;;;;;;;9.59;53.73;100105.25;344707;28;1014;-72
2023/04/10 00:39:26;;;;;;;10.55;7.18;;;;;;;9.56;54.12;100105.34;344953;28;1155;-73
2023/04/10 00:39:39;;;;;;;10.38;7.28;;;;;;;9.55;53.80;100101.03;344951;28;1906;-72
2023/04/10 00:39:51;;;;;;;10.35;7.25;;;;;;;9.54;54.14;100108.88;346017;28;1401;-73
2023/04/10 00:40:05;;;;;;;10.23;6.82;;;;;;;9.57;54.14;100108.78;346524;28;1054;-71
2023/04/10 00:40:22;;;;;;;9.75;6.65;;;;;;;9.55;54.17;100110.56;346495;28;1287;-72
2023/04/10 00:40:34;;;;;;;9.60;6.65;;;;;;;9.50;53.81;100102.88;345232;28;1146;-72
2023/04/10 00:40:47;;;;;;;10.30;6.85;;;;;;;9.47;54.25;100100.34;345449;28;1274;-72
2023/04/10 00:40:59;;;;;;;10.07;6.85;;;;;;;9.49;54.55;100105.50;346488;28;1038;-72
2023/04/10 00:41:11;;;;;;;9.90;6.90;;;;;;;9.48;54.25;100102.06;346468;28;774;-72
2023/04/10 00:41:23;;;;;;;10.03;6.90;;;;;;;9.45;54.40;100107.31;346153;28;1030;-72
2023/04/10 00:41:35;;;;;;;10.13;7.00;;;;;;;9.46;54.42;100103.84;346108;28;1035;-72
2023/04/10 00:41:47;;;;;;;11.13;7.32;;;;;;;9.45;54.40;100103.84;346188;28;1037;-72
2023/04/10 00:42:00;;;;;;;11.45;7.30;;;;;;;9.48;54.16;100106.41;346037;28;1531;-72
2023/04/10 00:42:12;;;;;;;11.00;7.40;;;;;;;9.49;54.22;100106.34;344874;28;1103;-72
2023/04/10 00:42:24;;;;;;;10.52;7.30;;;;;;;9.50;53.99;100107.22;344879;28;1389;-72
2023/04/10 00:42:36;;;;;;;10.40;7.25;;;;;;;9.46;53.80;100103.84;345083;28;1297;-72
2023/04/10 00:42:48;;;;;;;10.05;6.95;;;;;;;9.47;53.95;100105.53;344776;28;1089;-72
2023/04/10 00:43:00;;;;;;;10.30;7.15;;;;;;;9.45;54.26;100101.25;344763;28;1215;-72
2023/04/10 00:43:12;;;;;;;10.38;7.20;;;;;;;9.44;53.95;100108.19;344807;28;1077;-72
2023/04/10 00:43:24;;;;;;;10.65;7.38;;;;;;;9.45;54.14;100102.09;344850;28;1372;-72
2023/04/10 00:43:36;;;;;;;10.30;7.33;;;;;;;9.43;54.23;100101.28;345225;28;1042;-72
2023/04/10 00:43:48;;;;;;;10.82;7.70;;;;;;;9.39;53.84;100102.25;343344;28;1169;-72
2023/04/10 00:44:00;;;;;;;11.10;7.70;;;;;;;9.41;54.22;100103.06;345239;28;1865;-72
2023/04/10 00:44:12;;;;;;;11.35;7.50;;;;;;;9.39;53.92;100100.50;345095;28;1332;-72
2023/04/10 00:44:24;;;;;;;11.10;7.25;;;;;;;9.42;54.21;100106.50;344917;28;1907;-72
2023/04/10 00:44:36;;;;;;;9.75;6.82;;;;;;;9.43;54.37;100098.69;344134;28;1152;-72
2023/04/10 00:44:48;;;;;;;9.45;6.60;;;;;;;9.43;54.14;100098.69;345640;28;1320;-72
2023/04/10 00:45:01;;;;;;;9.48;6.53;;;;;;;9.43;54.08;100097.84;346432;28;1128;-72
2023/04/10 00:45:13;;;;;;;9.77;6.85;;;;;;;9.43;54.10;100097.84;346117;28;1031;-73
2023/04/10 00:45:31;;;;;;;9.68;7.00;;;;;;;9.42;54.20;100097.00;345897;28;1106;-73
2023/04/10 00:45:43;;;;;;;10.63;7.30;;;;;;;9.43;54.06;100103.88;345796;28;1107;-72
2023/04/10 00:45:55;;;;;;;11.48;7.40;;;;;;;9.42;54.06;100102.19;344906;28;1074;-72
2023/04/10 00:46:07;;;;;;;10.45;7.15;;;;;;;9.43;54.30;100103.88;344815;28;1938;-72
2023/04/10 00:46:19;;;;;;;8.88;6.57;;;;;;;9.43;54.36;100097.84;344954;28;1033;-71
2023/04/10 00:46:31;;;;;;;8.38;6.60;;;;;;;9.39;54.17;100097.91;344941;28;1046;-72
2023/04/10 00:46:43;;;;;;;9.37;6.77;;;;;;;9.39;54.29;100097.91;344963;28;1289;-72
2023/04/10 00:46:55;;;;;;;9.50;6.78;;;;;;;9.39;54.27;100090.13;344830;28;1126;-72
2023/04/10 00:47:07;;;;;;;10.47;6.93;;;;;;;9.39;54.20;100099.66;345190;28;1051;-72
2023/04/10 00:47:20;;;;;;;10.20;6.90;;;;;;;9.39;54.25;100097.06;345535;28;1273;-72
2023/04/10 00:47:33;;;;;;;10.85;6.93;;;;;;;9.39;54.22;100095.31;346509;28;1084;-72
2023/04/10 00:47:45;;;;;;;10.75;6.80;;;;;;;9.39;54.21;100102.25;346094;28;1052;-72
2023/04/10 00:47:57;;;;;;;10.52;6.88;;;;;;;9.39;54.26;100097.06;346066;28;1030;-72
2023/04/10 00:48:10;;;;;;;10.30;6.88;;;;;;;9.38;54.43;100095.34;346335;28;969;-72
2023/04/10 00:48:22;;;;;;;10.88;7.18;;;;;;;9.37;54.20;100099.66;345944;28;1268;-73
2023/04/10 00:48:34;;;;;;;10.73;7.00;;;;;;;9.37;54.38;100091.88;346219;28;1265;-72
2023/04/10 00:48:46;;;;;;;10.90;7.20;;;;;;;9.35;54.42;100095.41;346501;28;1187;-72
2023/04/10 00:48:58;;;;;;;10.98;7.30;;;;;;;9.36;54.52;100097.13;345555;28;1331;-72
2023/04/10 00:49:10;;;;;;;10.70;7.32;;;;;;;9.34;54.36;100098.91;344776;28;1109;-72
2023/04/10 00:49:22;;;;;;;10.68;7.50;;;;;;;9.35;54.46;100087.63;345081;28;1073;-72
2023/04/10 00:49:34;;;;;;;10.50;7.55;;;;;;;9.33;54.58;100097.19;344991;28;1177;-72
2023/04/10 00:49:47;;;;;;;11.52;7.32;;;;;;;9.33;54.74;100094.59;345341;28;1195;-72
2023/04/10 00:49:59;;;;;;;11.23;6.95;;;;;;;9.33;54.64;100092.84;344889;28;1284;-72
2023/04/10 00:50:11;;;;;;;10.57;6.93;;;;;;;9.33;54.57;100095.44;344805;28;979;-72
2023/04/10 00:50:23;;;;;;;9.45;6.90;;;;;;;9.34;54.51;100099.75;345162;28;1268;-71
2023/04/10 00:50:35;;;;;;;9.35;6.60;;;;;;;9.32;54.66;100091.13;345511;28;1209;-71
2023/04/10 00:50:47;;;;;;;10.10;7.00;;;;;;;9.30;54.48;100092.91;344897;28;1267;-71
2023/04/10 00:50:59;;;;;;;10.20;6.97;;;;;;;9.31;54.61;100094.59;345146;28;1300;-74
2023/04/10 00:51:12;;;;;;;10.70;6.95;;;;;;;9.31;54.50;100092.00;345171;28;1543;-74
2023/04/10 00:51:25;;;;;;;10.20;6.80;;;;;;;9.31;54.56;100102.38;344971;28;1027;-74
2023/04/10 00:51:37;;;;;;;11.05;7.13;;;;;;;9.31;54.63;100093.75;343888;28;1199;-72
2023/04/10 00:51:49;;;;;;;10.60;7.10;;;;;;;9.31;54.59;100098.94;345137;28;1231;-72
2023/04/10 00:52:01;;;;;;;10.10;7.13;;;;;;;9.32;54.38;100090.28;344706;28;2692;-72
2023/04/10 00:52:13;;;;;;;10.18;7.28;;;;;;;9.30;54.76;100094.66;345340;28;1743;-72
2023/04/10 00:52:25;;;;;;;10.40;7.15;;;;;;;9.32;54.83;100105.84;344637;28;1075;-72
2023/04/10 00:52:37;;;;;;;10.82;7.13;;;;;;;9.29;54.92;100100.72;344627;28;1333;-73
2023/04/10 00:52:50;;;;;;;11.05;7.00;;;;;;;9.30;55.15;100102.44;344728;28;1105;-73
2023/04/10 00:53:02;;;;;;;9.75;6.80;;;;;;;9.27;55.06;100095.56;344630;28;1051;-72
2023/04/10 00:53:14;;;;;;;10.15;7.05;;;;;;;9.27;54.80;100097.31;344583;28;1118;-72
2023/04/10 00:53:27;;;;;;;11.25;7.47;;;;;;;9.28;54.95;100101.63;344605;28;1046;-72
2023/04/10 00:53:40;;;;;;;11.38;7.35;;;;;;;9.27;54.66;100097.31;344841;28;1106;-72
2023/04/10 00:53:55;;;;;;;11.38;7.35;;;;;;;9.22;54.92;100100.00;345033;28;1298;-72
2023/04/10 00:54:10;;;;;;;10.90;7.57;;;;;;;9.20;54.78;100100.03;342989;28;1091;-73
2023/04/10 00:54:22;;;;;;;10.43;7.03;;;;;;;9.23;54.97;100100.84;344885;28;1050;-72
2023/04/10 00:54:35;;;;;;;10.73;7.10;;;;;;;9.20;55.21;100097.44;346006;28;1173;-72
2023/04/10 00:54:47;;;;;;;10.45;7.22;;;;;;;9.18;55.54;100099.19;346551;28;1177;-72
2023/04/10 00:55:00;;;;;;;9.93;7.13;;;;;;;9.18;55.38;100098.34;347841;28;1201;-72
2023/04/10 00:55:13;;;;;;;9.63;7.00;;;;;;;9.16;55.78;100100.13;347806;28;1073;-72
2023/04/10 00:55:25;;;;;;;9.52;7.10;;;;;;;9.15;55.38;100098.41;347520;28;1081;-72
2023/04/10 00:55:40;;;;;;;10.52;7.38;;;;;;;9.14;55.52;100105.31;346122;28;1106;-72
2023/04/10 00:55:53;;;;;;;11.32;7.53;;;;;;;9.10;55.78;100106.28;346063;28;1301;-72
2023/04/10 00:56:06;;;;;;;10.55;7.13;;;;;;;9.10;55.56;100103.69;346043;28;1082;-72
2023/04/10 00:56:19;;;;;;;10.32;6.88;;;;;;;9.08;55.83;100102.84;346523;28;1252;-72
2023/04/10 00:56:32;;;;;;;10.25;6.95;;;;;;;9.08;55.82;100102.84;346300;28;1089;-72
2023/04/10 00:56:45;;;;;;;10.90;7.60;;;;;;;9.06;56.00;100104.63;346476;28;1274;-72
2023/04/10 00:56:58;;;;;;;11.32;7.63;;;;;;;9.08;56.09;100104.59;346251;28;1245;-72
2023/04/10 00:57:11;;;;;;;11.73;7.20;;;;;;;9.08;55.88;100102.84;345604;28;1170;-72
2023/04/10 00:57:23;;;;;;;11.18;7.28;;;;;;;9.07;55.95;100105.47;345097;28;1212;-72
2023/04/10 00:57:37;;;;;;;10.02;7.35;;;;;;;9.06;55.56;100104.63;343742;28;3306;-72
2023/04/10 00:57:49;;;;;;;10.27;7.22;;;;;;;9.05;55.95;100104.66;346064;28;3140;-72
2023/04/10 00:58:01;;;;;;;10.70;7.20;;;;;;;9.05;56.40;100110.69;346603;28;1086;-72
2023/04/10 00:58:13;;;;;;;11.25;7.10;;;;;;;9.06;55.79;100115.00;346068;28;2967;-72
2023/04/10 00:58:25;;;;;;;10.98;7.05;;;;;;;9.05;55.82;100113.28;346246;28;1018;-72
2023/04/10 00:58:38;;;;;;;9.57;6.97;;;;;;;9.06;55.71;100107.22;346285;28;1060;-72
2023/04/10 00:58:50;;;;;;;9.40;7.07;;;;;;;9.05;55.99;100104.66;346165;28;1312;-71
2023/04/10 00:59:02;;;;;;;9.85;7.25;;;;;;;9.04;55.85;100114.16;346244;28;1053;-71
2023/04/10 00:59:18;;;;;;;11.60;7.40;;;;;;;9.04;55.71;100108.13;345904;28;1638;-72
2023/04/10 00:59:30;;;;;;;11.80;7.47;;;;;;;9.03;55.71;100114.19;345259;28;1059;-72
2023/04/10 00:59:43;;;;;;;11.15;7.53;;;;;;;8.98;55.80;100106.50;345131;28;1070;-72